气象报文与情报通波
气象报文机场: WSSS
ADDS - METARS form results

(1117 UTC 18 November 2019)
数据来源 http://aviationweather.gov/metar/data/
 
METAR text: WSSS 181100Z VRB02KT 9999 FEW017TCU BKN300 28/24 Q1009 NOSIG
Conditions at: WSSS (SINGAPORE/CHANGI, SG) observed 1100 UTC 18 November 2019
Temperature: 28.0°C (82°F)
Dewpoint: 24.0°C (75°F) [RH = 79%]
Pressure (altimeter): 29.79 inches Hg (1009.0 mb)
Winds: variable direction winds at 2 MPH (2 knots; 1.0 m/s)
Visibility: 6 or more miles (10+ km)
Ceiling: 30000 feet AGL
Clouds: few clouds at 1700 feet AGL
broken clouds at 30000 feet AGL
Weather: no significant weather observed at this time

METAR text: WSSS 181030Z 33004KT 290V030 9999 FEW017TCU BKN300 28/24 Q1008 NOSIG
Conditions at: WSSS (SINGAPORE/CHANGI, SG) observed 1030 UTC 18 November 2019
Temperature: 28.0°C (82°F)
Dewpoint: 24.0°C (75°F) [RH = 79%]
Pressure (altimeter): 29.76 inches Hg (1008.0 mb)
Winds: from the NNW (330 degrees) at 5 MPH (4 knots; 2.1 m/s)
Visibility: 6 or more miles (10+ km)
Ceiling: 30000 feet AGL
Clouds: few clouds at 1700 feet AGL
broken clouds at 30000 feet AGL
Weather: no significant weather observed at this time

Forecast for: WSSS (SINGAPORE/CHANGI, SG)
Text: TAF WSSS 181100Z 1812/1918 04006KT 9999 FEW015 SCT020
Forecast period: 1200 UTC 18 November 2019 to 1800 UTC 19 November 2019
Forecast type: FROM: standard forecast or significant change
Winds: from the NE (40 degrees) at 7 MPH (6 knots; 3.1 m/s)
Visibility: 6 or more miles 10+ km)
Ceiling: at least 12,000 feet AGL
Clouds: few clouds at 1500 feet AGL
scattered clouds at 2000 feet AGL
Weather: no significant weather forecast for this period
Text: TEMPO 1905/1909 3000 TSRA FEW012CB BKN015
Forecast period: 0500 to 0900 UTC 19 November 2019
Forecast type: TEMPORARY: The following changes expected for less than half the time period
Visibility: 1.86 miles (2.99 km)
Ceiling: 1500 feet AGL
Clouds: few clouds at 1200 feet AGL
broken clouds at 1500 feet AGL
Weather: TSRA  (rain associated with thunderstorm(s))

 机场地图

 跑道信息
跑道 02C 跑道长度 13123 ft 跑道宽度 197 ft
跑道标高 15 ft 跑道內移距离 0 ft 跑道磁航向 23
跑道 20C 跑道长度 13123 ft 跑道宽度 197 ft
跑道标高 15 ft 跑道內移距离 0 ft 跑道磁航向 203
跑道 02L 跑道长度 13123 ft 跑道宽度 197 ft
跑道标高 22 ft 跑道內移距离 0 ft 跑道磁航向 23
跑道 20R 跑道长度 13123 ft 跑道宽度 197 ft
跑道标高 14 ft 跑道內移距离 2429 ft 跑道磁航向 203
跑道 02R 跑道长度 9015 ft 跑道宽度 195 ft
跑道标高 0 ft 跑道內移距离 0 ft 跑道磁航向 23
跑道 20L 跑道长度 9015 ft 跑道宽度 195 ft
跑道标高 0 ft 跑道內移距离 0 ft 跑道磁航向 203

 机场频率
类型 A/D 名称 APP/DEP 频率 120.3 MHZ
类型 ARR 名称 ARR 频率 119.3 MHZ
类型 ATIS 名称 ATIS 频率 128.6 MHZ
类型 CLD 名称 CLNC DEL 频率 121.65 MHZ
类型 GND 名称 GND 频率 124.3 MHZ
类型 TWR 名称 TWR 频率 118.6 MHZ

 机场附近导航设备
类型 NDB 名称 Bedok 频率 232 KHZ
类型 VOR-DME 名称 Tekong 频率 116500 KHZ



© FlySim.cn中国最大航空飞行视频网版权所有